Terminal Aerodrome Forecast
Issued by NWS Wakefield, VA

Current Version | Previous Version | Text Only | Print | Product List | Glossary On
Versions: 1 2 3 4 5 6 7 8 9 10 11 12 13 14 15 16 17 18
000
FTUS41 KAKQ 302340
TAFSBY
TAF
KSBY 302340Z 3100/3124 21004KT P6SM SCT040 BKN080
     FM310400 VRB03KT 4SM BR BKN150
     FM310800 32003KT P6SM BKN150
     FM311200 35005KT P6SM SKC
     FM311600 32008KT P6SM SCT050=

USA.gov is the U.S. government's official web portal to all federal, state and local government web resources and services.